Liangping, China
Current Conditions -  °F | °C
As of 5:00 AM on Sunday 26 Oct 2014 (Local Time) from ZUCK Reporting Station
Haze Haze  
Wind Chill: 66°   Ceiling: Unl
Heat Index: 66°   Visibility: 3mi
Dew Point: 57°   Wind: 4mph
Humidity: 73%   Direction: 60°ENE
Pressure: 30.03"   Gusts: NA
Location:  30.68°N, 107.8°E
Report Text: ZUCK 252100Z 06002MPS 5000 BR NSC 19/14 Q1017 NOSIG
Loading
Personal Weather Stations






























Interactive Weather Map
Tropical Storm Tracking
New forecast layout! Learn more

10-Day Weather Forecast

Advertisements
Track Severe Weather on mobile